createdAt,value
2023-05-14T19:43:54.273Z,8.80
2023-05-14T19:46:21.643Z,8.90
2023-05-14T19:48:50.526Z,9.30
2023-05-14T19:51:17.333Z,9.30
2023-05-14T19:53:44.159Z,9.60
2023-05-14T19:56:11.051Z,9.40
2023-05-14T19:58:37.961Z,9.40
2023-05-14T20:01:04.803Z,9.80
2023-05-14T20:03:33.616Z,10.00
2023-05-14T20:06:03.598Z,10.40
2023-05-14T20:08:30.416Z,10.00
2023-05-14T20:10:57.721Z,10.60
2023-05-14T20:13:25.480Z,10.70
2023-05-14T20:15:52.322Z,9.90
2023-05-14T20:18:19.200Z,9.50
2023-05-14T20:20:46.002Z,10.50
2023-05-14T20:23:13.287Z,10.80
2023-05-14T20:25:40.126Z,12.00
2023-05-14T20:28:07.013Z,10.20
2023-05-14T20:30:33.887Z,10.60
2023-05-14T20:33:00.755Z,11.60
2023-05-14T20:35:27.719Z,11.30
2023-05-14T20:37:54.606Z,10.50
2023-05-14T20:40:21.586Z,11.60
2023-05-14T20:42:50.433Z,12.60
2023-05-14T20:45:17.508Z,11.50
2023-05-14T20:47:44.690Z,12.50
2023-05-14T20:50:14.850Z,11.90
2023-05-14T20:52:41.632Z,11.60
2023-05-14T20:55:09.099Z,12.10
2023-05-14T20:57:36.918Z,12.10
2023-05-14T21:00:08.131Z,12.90
2023-05-14T21:02:35.102Z,14.60
2023-05-14T21:05:02.396Z,15.10
2023-05-14T21:07:30.544Z,15.50
2023-05-14T21:09:57.293Z,16.00
2023-05-14T21:12:24.258Z,16.90
2023-05-14T21:14:53.437Z,15.20
2023-05-14T21:17:20.302Z,15.00
2023-05-14T21:19:47.193Z,14.20
2023-05-14T21:22:14.331Z,14.90
2023-05-14T21:24:43.282Z,14.40
2023-05-14T21:27:10.506Z,13.40
2023-05-14T21:29:39.717Z,12.90
2023-05-14T21:32:07.054Z,12.20
2023-05-14T21:34:33.953Z,13.10
2023-05-14T21:37:00.819Z,12.80
2023-05-14T21:39:28.850Z,14.50
2023-05-14T21:41:55.821Z,11.50
2023-05-14T21:44:22.764Z,12.50
2023-05-14T21:46:51.097Z,12.60
2023-05-14T21:49:20.867Z,13.10
2023-05-14T21:51:53.248Z,13.50
2023-05-14T21:54:20.917Z,13.00
2023-05-14T21:56:47.935Z,13.30
2023-05-14T21:59:14.703Z,13.40
2023-05-14T22:02:00.627Z,12.50
2023-05-14T22:04:28.474Z,12.70
2023-05-14T22:06:55.206Z,12.40
2023-05-14T22:09:22.055Z,13.10
2023-05-14T22:11:49.005Z,13.60
2023-05-14T22:14:15.780Z,12.90
2023-05-14T22:16:42.610Z,13.20
2023-05-14T22:19:09.600Z,13.50
2023-05-14T22:21:36.441Z,13.30
2023-05-14T22:24:03.222Z,12.20
2023-05-14T22:26:30.195Z,13.60
2023-05-14T22:28:57.714Z,12.90
2023-05-14T22:31:24.504Z,12.50
2023-05-14T22:33:52.182Z,12.40
2023-05-14T22:36:18.919Z,12.90
2023-05-14T22:38:45.722Z,12.10
2023-05-14T22:41:12.561Z,12.00
2023-05-14T22:43:39.304Z,12.00
2023-05-14T22:46:06.395Z,11.20
2023-05-14T22:48:33.241Z,10.40
2023-05-14T22:51:00.051Z,11.60
2023-05-14T22:53:26.881Z,11.50
2023-05-14T22:55:53.737Z,11.50
2023-05-14T22:58:21.607Z,10.90
2023-05-14T23:00:48.311Z,10.70
2023-05-14T23:03:15.238Z,11.20
2023-05-14T23:05:42.344Z,11.20
2023-05-14T23:08:09.536Z,10.60
2023-05-14T23:10:36.386Z,10.90
2023-05-14T23:13:03.751Z,10.80
2023-05-14T23:15:30.767Z,10.90
2023-05-14T23:17:57.714Z,10.60
2023-05-14T23:20:24.786Z,10.00
2023-05-14T23:22:52.522Z,9.90
2023-05-14T23:25:19.853Z,10.40
2023-05-14T23:27:46.750Z,10.50
2023-05-14T23:30:13.688Z,10.70
2023-05-14T23:32:40.645Z,10.70
2023-05-14T23:35:08.371Z,10.00
2023-05-14T23:37:41.600Z,10.80
2023-05-14T23:40:10.392Z,9.30
2023-05-14T23:42:37.188Z,10.10
2023-05-14T23:45:04.672Z,9.80
2023-05-14T23:47:31.504Z,9.30
2023-05-14T23:49:59.921Z,9.10
2023-05-14T23:52:26.712Z,9.90
2023-05-14T23:54:54.338Z,10.20
2023-05-14T23:57:21.127Z,9.90
2023-05-14T23:59:47.900Z,10.60
